Time;durP1;ratioP1;P1;durP2;ratioP2;P2;SDS_P1;SDS_P2;PMS_P1;PMS_P2;Temp;Humidity;BMP_temperature;BMP_pressure;BME280_temperature;BME280_humidity;BME280_pressure;Samples;Min_cycle;Max_cycle;Signal;HPM_P1;HPM_P2
2022/01/03 00:01:09;;;;;;;65.95;32.75;;;;;;;4.89;89.48;95473.94;5060236;28;20264;-71
2022/01/03 00:03:36;;;;;;;60.50;32.83;;;;;;;5.11;89.01;95478.03;5059388;28;20279;-71
2022/01/03 00:06:04;;;;;;;55.60;31.45;;;;;;;5.23;88.02;95482.97;5060501;28;20305;-70
2022/01/03 00:08:31;;;;;;;72.00;34.55;;;;;;;4.79;88.33;95475.66;5060841;28;20221;-71
2022/01/03 00:10:58;;;;;;;60.00;31.80;;;;;;;4.85;88.53;95462.22;5060530;28;20287;-70
2022/01/03 00:13:25;;;;;;;59.15;31.30;;;;;;;4.92;88.50;95467.22;5060049;28;20244;-71
2022/01/03 00:15:55;;;;;;;64.80;32.40;;;;;;;5.03;88.38;95457.91;5058740;28;20676;-71
2022/01/03 00:18:23;;;;;;;64.65;32.22;;;;;;;4.85;88.49;95449.63;5058728;28;20243;-71
2022/01/03 00:20:56;;;;;;;57.65;33.42;;;;;;;4.89;88.18;95451.28;5057981;28;20202;-71
2022/01/03 00:23:25;;;;;;;67.32;34.47;;;;;;;4.08;91.29;95444.91;5057776;28;20683;-70
2022/01/03 00:25:58;;;;;;;69.50;36.10;;;;;;;4.53;90.64;95442.22;5058289;28;20616;-70
2022/01/03 00:28:31;;;;;;;71.78;37.15;;;;;;;4.96;88.83;95440.31;5059596;28;20203;-71
2022/01/03 00:31:00;;;;;;;70.82;36.65;;;;;;;4.95;88.81;95441.19;5059282;28;20283;-70
2022/01/03 00:33:27;;;;;;;78.57;36.75;;;;;;;5.04;87.93;95433.56;5060049;28;20264;-70
2022/01/03 00:35:59;;;;;;;74.13;35.92;;;;;;;5.19;87.68;95430.97;5059404;28;20222;-71
2022/01/03 00:38:27;;;;;;;67.45;35.05;;;;;;;5.24;86.85;95434.25;5061319;28;20241;-70
2022/01/03 00:40:55;;;;;;;66.38;33.72;;;;;;;5.38;86.30;95445.09;5060294;28;20708;-71
2022/01/03 00:43:22;;;;;;;65.45;33.55;;;;;;;5.43;85.60;95437.50;5059973;28;20207;-71
2022/01/03 00:45:53;;;;;;;62.45;29.92;;;;;;;5.32;85.72;95446.81;5058997;28;20287;-71
2022/01/03 00:48:22;;;;;;;57.10;29.17;;;;;;;5.37;86.42;95452.66;5059028;28;20714;-71
2022/01/03 00:50:49;;;;;;;59.67;30.27;;;;;;;5.09;86.11;95457.03;5058862;28;20633;-71
2022/01/03 00:53:17;;;;;;;53.35;29.65;;;;;;;5.14;85.76;95442.75;5061314;28;20346;-71
2022/01/03 00:56:04;;;;;;;62.40;30.65;;;;;;;5.10;85.72;95433.53;5060503;28;20202;-70
2022/01/03 00:58:37;;;;;;;55.63;29.77;;;;;;;4.90;86.01;95438.69;5059818;28;20198;-71
2022/01/03 01:01:06;;;;;;;57.33;30.35;;;;;;;4.70;86.55;95431.22;5060611;28;20198;-70
2022/01/03 01:03:38;;;;;;;67.97;30.75;;;;;;;4.49;87.88;95423.78;5060706;28;20870;-71
2022/01/03 01:06:07;;;;;;;60.80;30.80;;;;;;;4.48;88.40;95414.56;5062081;28;20276;-70
2022/01/03 01:08:37;;;;;;;62.55;31.95;;;;;;;4.60;88.45;95413.66;5062837;28;20273;-71
2022/01/03 01:11:06;;;;;;;57.10;30.58;;;;;;;4.41;88.66;95410.41;5062274;28;21042;-70
2022/01/03 01:13:34;;;;;;;69.30;31.35;;;;;;;4.46;89.64;95406.16;5063755;28;20257;-70
2022/01/03 01:16:04;;;;;;;69.80;32.65;;;;;;;4.36;89.86;95399.53;5062954;28;20225;-70
2022/01/03 01:18:35;;;;;;;62.47;29.48;;;;;;;4.56;89.49;95402.78;5064324;28;20644;-71
2022/01/03 01:21:04;;;;;;;54.75;29.73;;;;;;;4.41;90.06;95392.78;5063790;28;20193;-70
2022/01/03 01:23:31;;;;;;;60.03;30.65;;;;;;;4.13;92.07;95406.31;5063068;28;20231;-71
2022/01/03 01:28:43;;;;;;;47.30;26.58;;;;;;;4.52;89.78;95405.31;5071534;28;20213;-70
2022/01/03 01:31:12;;;;;;;56.72;27.13;;;;;;;4.30;91.64;95394.50;5072402;28;20222;-70
2022/01/03 01:33:44;;;;;;;46.63;25.63;;;;;;;4.42;90.60;95394.47;5072526;28;20232;-70
2022/01/03 01:36:15;;;;;;;38.50;22.42;;;;;;;4.63;90.37;95391.84;5072624;28;20260;-71
2022/01/03 01:38:49;;;;;;;39.20;22.80;;;;;;;4.39;91.09;95400.34;5071740;28;20581;-70
2022/01/03 01:41:20;;;;;;;35.47;18.60;;;;;;;4.58;90.96;95400.25;5070463;28;20294;-70
2022/01/03 01:43:49;;;;;;;29.13;19.35;;;;;;;4.66;91.00;95396.88;5070603;28;20198;-70
2022/01/03 01:46:18;;;;;;;36.92;21.67;;;;;;;4.76;90.12;95392.59;5070303;28;20627;-70
2022/01/03 01:48:47;;;;;;;30.13;17.80;;;;;;;4.56;90.76;95390.19;5070276;28;20692;-70
2022/01/03 01:51:18;;;;;;;30.73;18.67;;;;;;;4.52;90.58;95380.97;5071010;28;20249;-70
2022/01/03 01:53:47;;;;;;;37.55;20.48;;;;;;;4.65;89.58;95400.22;5069689;28;20203;-70
2022/01/03 01:56:21;;;;;;;37.67;23.35;;;;;;;4.50;89.81;95394.41;5071282;28;20280;-69
2022/01/03 01:59:16;;;;;;;45.45;24.42;;;;;;;4.10;92.43;95382.84;5071883;28;20195;-70
2022/01/03 02:01:50;;;;;;;44.37;25.17;;;;;;;3.96;92.82;95389.59;5058534;28;20198;-70
2022/01/03 02:04:28;;;;;;;46.13;23.60;;;;;;;4.19;92.68;95381.16;5071678;28;20738;-70
2022/01/03 02:06:57;;;;;;;40.20;22.33;;;;;;;4.30;91.75;95364.31;5072159;28;20194;-69
2022/01/03 02:09:38;;;;;;;38.05;23.70;;;;;;;4.55;90.50;95368.38;5072003;28;20277;-70
2022/01/03 02:12:14;;;;;;;40.97;21.52;;;;;;;4.66;89.51;95358.28;5071991;28;20234;-69
2022/01/03 02:14:41;;;;;;;38.22;22.95;;;;;;;4.76;89.29;95352.31;5072033;28;20198;-70
2022/01/03 02:17:08;;;;;;;37.53;22.67;;;;;;;3.97;91.73;95358.56;5069843;28;20194;-69
2022/01/03 02:19:38;;;;;;;36.97;21.05;;;;;;;4.07;92.54;95340.09;5069615;28;21049;-69
2022/01/03 02:22:05;;;;;;;44.50;22.83;;;;;;;3.93;93.52;95346.88;5069867;28;20195;-69
2022/01/03 02:24:32;;;;;;;38.20;21.23;;;;;;;4.28;92.49;95340.84;5070227;28;20201;-69
2022/01/03 02:27:02;;;;;;;40.65;22.25;;;;;;;4.48;91.58;95331.50;5069848;28;20202;-70
2022/01/03 02:29:28;;;;;;;40.00;22.30;;;;;;;4.28;91.60;95330.78;5069652;28;20230;-70
2022/01/03 02:31:55;;;;;;;39.42;22.17;;;;;;;4.03;92.85;95340.13;5070556;28;20222;-70
2022/01/03 02:34:23;;;;;;;38.78;21.40;;;;;;;4.34;92.36;95335.78;5071790;28;20222;-70
2022/01/03 02:36:52;;;;;;;37.33;21.38;;;;;;;4.54;91.16;95334.00;5071347;28;20558;-70
2022/01/03 02:39:19;;;;;;;40.70;21.98;;;;;;;4.24;91.12;95334.16;5071406;28;20191;-70
2022/01/03 02:41:46;;;;;;;41.67;22.75;;;;;;;4.39;91.36;95339.97;5071300;28;20234;-69
2022/01/03 02:44:13;;;;;;;42.60;22.17;;;;;;;4.29;91.56;95337.50;5071761;28;20194;-70
2022/01/03 02:46:41;;;;;;;46.63;22.63;;;;;;;4.42;91.18;95336.59;5071260;28;20647;-70
2022/01/03 02:49:07;;;;;;;42.05;23.80;;;;;;;4.46;91.12;95335.72;5071183;28;20202;-70
2022/01/03 02:51:34;;;;;;;44.53;24.33;;;;;;;4.53;90.49;95328.97;5071229;28;20222;-70
2022/01/03 02:54:03;;;;;;;40.22;24.63;;;;;;;4.27;90.19;95329.94;5071310;28;20260;-70
2022/01/03 02:56:35;;;;;;;44.83;24.35;;;;;;;4.04;91.12;95335.09;5071160;28;20244;-70
2022/01/03 02:59:02;;;;;;;35.90;22.90;;;;;;;3.98;91.73;95327.56;5070822;28;20251;-70
2022/01/03 03:01:29;;;;;;;41.28;23.27;;;;;;;4.03;91.93;95320.84;5070894;28;20722;-70
2022/01/03 03:03:55;;;;;;;49.53;22.73;;;;;;;4.12;91.77;95324.16;5070735;28;20186;-70
2022/01/03 03:06:22;;;;;;;38.57;21.87;;;;;;;4.42;89.94;95318.97;5070831;28;20198;-69
2022/01/03 03:08:49;;;;;;;43.58;21.85;;;;;;;4.35;90.19;95313.13;5070954;28;20199;-70
2022/01/03 03:11:17;;;;;;;45.53;23.25;;;;;;;4.27;90.09;95316.53;5070399;28;20230;-70
2022/01/03 03:13:44;;;;;;;39.00;21.53;;;;;;;4.28;89.83;95315.69;5071037;28;20194;-70
2022/01/03 03:16:10;;;;;;;44.80;21.67;;;;;;;4.31;90.51;95315.69;5071205;28;20623;-70
2022/01/03 03:18:37;;;;;;;36.50;21.13;;;;;;;4.24;91.19;95309.00;5070836;28;20271;-70
2022/01/03 03:21:04;;;;;;;37.85;22.25;;;;;;;4.16;90.90;95319.13;5070454;28;20520;-70
2022/01/03 03:23:31;;;;;;;41.47;22.65;;;;;;;4.26;90.91;95317.38;5070585;28;20612;-70
2022/01/03 03:25:58;;;;;;;43.53;22.83;;;;;;;4.28;91.09;95319.03;5070703;28;20202;-70
2022/01/03 03:28:26;;;;;;;42.03;23.55;;;;;;;4.29;90.35;95322.41;5069700;28;20248;-70
2022/01/03 03:30:54;;;;;;;40.33;23.27;;;;;;;4.36;91.02;95316.50;5070553;28;20190;-70
2022/01/03 03:33:23;;;;;;;49.22;26.80;;;;;;;4.58;90.13;95307.97;5070737;28;20194;-70
2022/01/03 03:35:51;;;;;;;46.50;26.33;;;;;;;4.54;90.41;95306.31;5070351;28;20210;-70
2022/01/03 03:38:18;;;;;;;45.05;24.88;;;;;;;4.58;89.67;95309.66;5070485;28;20205;-70
2022/01/03 03:40:47;;;;;;;53.60;28.60;;;;;;;4.41;91.02;95294.66;5070213;28;20222;-69
2022/01/03 03:43:14;;;;;;;49.97;26.02;;;;;;;4.24;91.48;95299.78;5070254;28;20237;-70
2022/01/03 03:45:42;;;;;;;46.08;27.10;;;;;;;4.05;91.90;95294.00;5070419;28;20194;-70
2022/01/03 03:48:09;;;;;;;58.42;29.52;;;;;;;4.15;92.23;95307.38;5070312;28;20251;-70
2022/01/03 03:50:36;;;;;;;55.38;29.58;;;;;;;4.34;91.71;95308.13;5070317;28;20202;-70
2022/01/03 03:53:04;;;;;;;54.75;29.67;;;;;;;4.59;90.87;95302.09;5070197;28;20226;-70
2022/01/03 03:55:32;;;;;;;60.25;29.63;;;;;;;4.60;90.12;95301.25;5070204;28;20300;-69
2022/01/03 03:57:59;;;;;;;59.55;31.23;;;;;;;4.38;91.00;95304.75;5069938;28;20195;-70
2022/01/03 04:00:26;;;;;;;48.38;28.48;;;;;;;3.94;92.79;95305.81;5069627;28;20190;-71
2022/01/03 04:02:55;;;;;;;53.25;29.45;;;;;;;4.34;92.58;95311.47;5070079;28;20255;-70
2022/01/03 04:05:22;;;;;;;53.53;29.17;;;;;;;4.58;90.69;95300.41;5068343;28;20191;-70
2022/01/03 04:07:48;;;;;;;57.88;30.73;;;;;;;4.75;89.79;95297.75;5068192;28;20202;-70
2022/01/03 04:10:16;;;;;;;58.22;29.27;;;;;;;4.91;88.55;95285.91;5068208;28;20252;-70
2022/01/03 04:12:44;;;;;;;42.95;28.10;;;;;;;4.78;88.11;95288.50;5067996;28;20722;-70
2022/01/03 04:15:11;;;;;;;46.30;26.75;;;;;;;4.56;89.08;95297.06;5068367;28;20247;-69
2022/01/03 04:17:38;;;;;;;58.78;28.90;;;;;;;4.62;88.81;95306.28;5068200;28;20781;-69
2022/01/03 04:20:08;;;;;;;48.63;26.90;;;;;;;3.96;91.07;95306.63;5068738;28;20268;-69
2022/01/03 04:22:35;;;;;;;50.20;28.10;;;;;;;3.97;92.02;95309.97;5068801;28;20569;-69
2022/01/03 04:25:02;;;;;;;56.55;29.60;;;;;;;4.07;91.70;95306.56;5069806;28;20194;-69
2022/01/03 04:27:29;;;;;;;62.28;32.25;;;;;;;4.13;92.48;95305.72;5069887;28;20202;-69
2022/01/03 04:29:56;;;;;;;62.80;34.78;;;;;;;4.48;90.79;95292.91;5070101;28;20190;-69
2022/01/03 04:32:23;;;;;;;58.60;34.40;;;;;;;4.20;91.39;95297.31;5070013;28;20283;-69
2022/01/03 04:34:50;;;;;;;58.90;32.33;;;;;;;3.87;92.86;95304.16;5069647;28;20222;-68
2022/01/03 04:37:18;;;;;;;58.75;30.65;;;;;;;4.23;93.47;95292.22;5070090;28;20205;-68
2022/01/03 04:39:45;;;;;;;69.97;33.10;;;;;;;4.05;93.03;95293.16;5070224;28;20198;-68
2022/01/03 04:42:12;;;;;;;57.70;32.97;;;;;;;4.18;92.06;95294.81;5073621;28;20190;-69
2022/01/03 04:44:38;;;;;;;53.17;32.78;;;;;;;4.22;91.60;95298.09;5073624;28;20637;-69
2022/01/03 04:47:05;;;;;;;59.78;31.70;;;;;;;4.26;91.65;95308.16;5073541;28;20240;-69
2022/01/03 04:49:32;;;;;;;58.95;30.80;;;;;;;4.26;91.84;95322.41;5073328;28;20669;-69
2022/01/03 04:51:59;;;;;;;58.88;33.90;;;;;;;4.06;91.70;95318.31;5073539;28;20222;-69
2022/01/03 04:54:27;;;;;;;57.10;31.90;;;;;;;4.19;91.80;95328.34;5073289;28;20673;-69
2022/01/03 04:56:58;;;;;;;54.90;31.42;;;;;;;4.46;91.05;95320.59;5073345;28;20255;-69
2022/01/03 04:59:25;;;;;;;52.85;29.65;;;;;;;4.81;89.31;95322.06;5073733;28;20194;-69
2022/01/03 05:01:52;;;;;;;61.88;32.00;;;;;;;4.62;88.13;95332.28;5072902;28;20194;-69
2022/01/03 05:04:19;;;;;;;58.73;32.50;;;;;;;4.53;88.67;95327.28;5073136;28;20590;-70
2022/01/03 05:06:45;;;;;;;56.15;30.30;;;;;;;4.15;89.00;95319.13;5073293;28;20202;-70
2022/01/03 05:09:12;;;;;;;60.47;34.05;;;;;;;3.92;90.31;95322.56;5073131;28;20198;-69
2022/01/03 05:11:41;;;;;;;59.72;32.13;;;;;;;3.86;91.10;95322.59;5073177;28;20673;-69
2022/01/03 05:14:08;;;;;;;62.05;32.95;;;;;;;4.00;91.13;95323.38;5073207;28;20208;-70
2022/01/03 05:16:35;;;;;;;53.97;31.75;;;;;;;3.92;90.72;95317.56;5072886;28;20194;-70
2022/01/03 05:19:02;;;;;;;53.67;29.90;;;;;;;3.98;91.30;95314.97;5072577;28;20666;-70
2022/01/03 05:21:28;;;;;;;62.58;32.25;;;;;;;3.93;91.52;95319.22;5073053;28;20279;-70
2022/01/03 05:23:55;;;;;;;60.42;31.20;;;;;;;3.81;91.53;95323.44;5073046;28;20248;-70
2022/01/03 05:26:22;;;;;;;54.50;30.52;;;;;;;3.77;91.68;95322.63;5072640;28;20191;-70
2022/01/03 05:28:50;;;;;;;65.83;30.47;;;;;;;3.78;91.36;95319.25;5072839;28;20301;-69
2022/01/03 05:31:18;;;;;;;54.47;28.88;;;;;;;3.97;91.20;95310.78;5072681;28;20195;-70
2022/01/03 05:33:45;;;;;;;50.38;28.42;;;;;;;3.89;90.75;95310.00;5072957;28;20249;-70
2022/01/03 05:36:12;;;;;;;57.80;31.48;;;;;;;3.56;92.47;95297.56;5071850;28;20198;-70
2022/01/03 05:38:39;;;;;;;52.77;31.53;;;;;;;3.50;93.47;95297.56;5072445;28;20283;-70
2022/01/03 05:41:05;;;;;;;61.08;33.08;;;;;;;3.77;92.96;95294.97;5072182;28;20231;-70
2022/01/03 05:43:32;;;;;;;49.17;31.50;;;;;;;3.69;93.11;95310.09;5072357;28;20619;-70
2022/01/03 05:46:00;;;;;;;68.85;33.67;;;;;;;4.05;91.42;95314.13;5072055;28;20263;-70
2022/01/03 05:48:28;;;;;;;57.55;31.67;;;;;;;4.23;90.64;95313.19;5072347;28;20251;-70
2022/01/03 05:50:55;;;;;;;65.85;35.40;;;;;;;4.36;89.97;95308.94;5071974;28;20556;-70
2022/01/03 05:53:21;;;;;;;62.22;33.83;;;;;;;4.41;89.83;95308.06;5071114;28;20226;-70
2022/01/03 05:55:49;;;;;;;53.47;32.78;;;;;;;4.31;89.25;95308.13;5069885;28;20190;-70
2022/01/03 05:58:17;;;;;;;60.03;31.08;;;;;;;4.20;89.54;95317.44;5069636;28;20195;-70
2022/01/03 06:00:45;;;;;;;65.07;35.28;;;;;;;4.01;90.02;95307.44;5069738;28;20201;-70
2022/01/03 06:03:14;;;;;;;61.13;35.35;;;;;;;3.99;90.31;95316.66;5069925;28;20213;-70
2022/01/03 06:05:53;;;;;;;68.22;36.40;;;;;;;4.00;90.39;95314.97;5069922;28;20282;-70
2022/01/03 06:08:20;;;;;;;75.53;35.42;;;;;;;4.13;90.35;95320.81;5070564;28;20198;-70
2022/01/03 06:10:47;;;;;;;68.18;36.67;;;;;;;4.27;89.26;95329.09;5071777;28;20186;-70
2022/01/03 06:13:16;;;;;;;70.13;36.17;;;;;;;4.41;89.30;95327.38;5072025;28;20226;-70
2022/01/03 06:15:43;;;;;;;67.20;37.05;;;;;;;4.40;88.28;95316.47;5072098;28;20198;-70
2022/01/03 06:18:14;;;;;;;69.03;36.05;;;;;;;4.53;88.31;95317.22;5071888;28;20683;-69
2022/01/03 06:20:43;;;;;;;66.07;37.33;;;;;;;4.58;88.27;95329.78;5071699;28;20247;-70
2022/01/03 06:23:13;;;;;;;71.07;36.90;;;;;;;4.48;88.64;95334.03;5071584;28;20199;-70
2022/01/03 06:25:41;;;;;;;71.47;37.40;;;;;;;4.39;87.93;95319.00;5071969;28;20198;-70
2022/01/03 06:28:09;;;;;;;72.82;37.22;;;;;;;4.47;87.41;95337.38;5071565;28;20199;-70
2022/01/03 06:30:36;;;;;;;63.53;36.50;;;;;;;4.73;87.37;95337.22;5071715;28;20234;-70
2022/01/03 06:33:03;;;;;;;63.88;33.28;;;;;;;4.68;87.26;95337.28;5071262;28;20222;-70
2022/01/03 06:35:32;;;;;;;65.70;34.92;;;;;;;4.36;87.09;95336.63;5071075;28;20241;-70
2022/01/03 06:37:59;;;;;;;65.10;33.85;;;;;;;4.01;88.43;95326.72;5070766;28;20669;-69
2022/01/03 06:40:26;;;;;;;77.38;36.97;;;;;;;4.49;87.59;95320.59;5071021;28;20230;-69
2022/01/03 06:42:53;;;;;;;67.32;34.75;;;;;;;4.76;85.94;95327.97;5071458;28;20195;-70
2022/01/03 06:45:20;;;;;;;69.80;36.05;;;;;;;4.64;85.34;95323.03;5070741;28;20209;-69
2022/01/03 06:47:47;;;;;;;66.25;34.25;;;;;;;4.72;85.52;95330.50;5070820;28;20557;-70
2022/01/03 06:50:14;;;;;;;60.13;33.15;;;;;;;4.82;85.09;95329.63;5070913;28;20194;-69
2022/01/03 06:52:42;;;;;;;64.40;35.70;;;;;;;4.53;87.19;95337.34;5070897;28;20222;-69
2022/01/03 06:55:10;;;;;;;62.28;33.67;;;;;;;4.75;86.80;95328.81;5070605;28;20252;-69
2022/01/03 06:57:37;;;;;;;61.53;33.60;;;;;;;5.01;85.92;95325.28;5070610;28;20207;-70
2022/01/03 07:00:05;;;;;;;59.70;33.08;;;;;;;5.33;85.09;95328.34;5070581;28;20190;-69
2022/01/03 07:02:31;;;;;;;63.50;30.80;;;;;;;5.72;83.63;95329.63;5069513;28;20256;-69
2022/01/03 07:04:58;;;;;;;56.65;28.88;;;;;;;5.91;83.26;95317.72;5070345;28;20228;-70
2022/01/03 07:07:25;;;;;;;58.72;30.67;;;;;;;6.80;79.99;95318.19;5070362;28;20247;-70
2022/01/03 07:09:53;;;;;;;53.65;29.70;;;;;;;8.04;75.76;95316.06;5070262;28;20194;-70
2022/01/03 07:12:19;;;;;;;56.22;30.35;;;;;;;9.40;68.82;95312.16;5069578;28;20259;-70
2022/01/03 07:20:26;;;;;;;53.70;30.15;;;;;;;12.16;58.97;95302.06;5063016;28;20201;-70
2022/01/03 07:22:53;;;;;;;56.78;31.30;;;;;;;12.22;59.67;95304.41;5070652;28;20194;-71
2022/01/03 07:25:21;;;;;;;61.40;31.63;;;;;;;12.46;58.36;95301.84;5070127;28;20199;-71
2022/01/03 07:27:48;;;;;;;51.83;28.65;;;;;;;12.48;59.94;95292.44;5068106;28;20199;-71
2022/01/03 07:30:14;;;;;;;50.40;28.23;;;;;;;13.14;56.47;95285.63;5068303;28;20190;-71
2022/01/03 07:32:43;;;;;;;64.40;30.20;;;;;;;13.78;58.51;95277.91;5068768;28;20230;-70
2022/01/03 07:35:13;;;;;;;44.20;27.23;;;;;;;14.32;53.91;95284.91;5068453;28;20436;-70
2022/01/03 07:37:40;;;;;;;48.90;27.70;;;;;;;14.35;53.20;95289.03;5068517;28;20220;-70
2022/01/03 07:40:08;;;;;;;47.67;29.20;;;;;;;13.47;55.08;95291.94;5068510;28;20226;-71
2022/01/03 07:42:36;;;;;;;50.20;27.75;;;;;;;12.40;59.20;95291.88;5069934;28;20203;-70
2022/01/03 07:45:03;;;;;;;47.17;28.13;;;;;;;11.43;62.85;95304.56;5070161;28;20614;-70
2022/01/03 07:47:30;;;;;;;53.75;27.52;;;;;;;11.29;63.29;95304.22;5070273;28;20820;-71
2022/01/03 07:49:57;;;;;;;44.60;27.38;;;;;;;10.83;64.23;95290.41;5070266;28;20186;-70
2022/01/03 07:52:23;;;;;;;43.75;25.55;;;;;;;10.50;65.27;95293.97;5070279;28;20194;-70
2022/01/03 07:54:52;;;;;;;43.45;26.52;;;;;;;10.39;66.54;95296.00;5070327;28;20374;-70
2022/01/03 07:57:19;;;;;;;53.00;26.75;;;;;;;10.71;67.12;95298.41;5070069;28;20198;-71
2022/01/03 07:59:47;;;;;;;43.08;23.55;;;;;;;12.67;61.15;95295.94;5070284;28;20194;-70
2022/01/03 08:02:14;;;;;;;36.63;21.52;;;;;;;14.20;56.70;95285.44;5070314;28;20263;-70
2022/01/03 08:04:41;;;;;;;36.60;21.45;;;;;;;15.39;53.09;95283.28;5070126;28;20233;-70
2022/01/03 08:07:08;;;;;;;29.25;18.83;;;;;;;16.21;51.05;95276.59;5069933;28;20252;-70
2022/01/03 08:09:35;;;;;;;30.85;18.63;;;;;;;17.57;48.01;95274.31;5069896;28;20198;-70
2022/01/03 08:12:02;;;;;;;26.52;17.70;;;;;;;18.90;44.31;95278.28;5070604;28;20203;-70
2022/01/03 08:14:28;;;;;;;24.38;18.40;;;;;;;18.26;44.66;95282.22;5071531;28;20271;-70
2022/01/03 08:16:57;;;;;;;25.48;17.92;;;;;;;17.32;47.53;95287.72;5074212;28;20194;-71
2022/01/03 08:19:23;;;;;;;26.48;18.05;;;;;;;16.81;49.01;95287.13;5073830;28;20248;-70
2022/01/03 08:21:50;;;;;;;24.40;14.93;;;;;;;16.43;50.32;95288.28;5073659;28;20264;-70
2022/01/03 08:24:17;;;;;;;22.98;13.50;;;;;;;15.97;51.30;95293.25;5073905;28;20190;-69
2022/01/03 08:26:44;;;;;;;15.23;11.57;;;;;;;17.30;48.38;95285.22;5073754;28;20194;-71
2022/01/03 08:29:11;;;;;;;25.75;13.30;;;;;;;18.17;45.43;95274.19;5073453;28;20251;-69
2022/01/03 08:31:40;;;;;;;23.38;14.52;;;;;;;19.62;43.10;95271.94;5073838;28;20197;-71
2022/01/03 08:34:08;;;;;;;19.08;13.48;;;;;;;19.93;40.67;95264.75;5073633;28;20218;-71
2022/01/03 08:36:35;;;;;;;19.65;12.40;;;;;;;19.28;43.39;95262.16;5073168;28;20194;-69
2022/01/03 08:39:01;;;;;;;19.65;14.02;;;;;;;18.68;44.13;95257.38;5073690;28;20194;-69
2022/01/03 08:41:29;;;;;;;18.48;12.63;;;;;;;20.01;43.47;95262.47;5073339;28;20787;-70
2022/01/03 08:43:56;;;;;;;18.60;12.30;;;;;;;20.01;40.63;95244.41;5073444;28;20198;-70
2022/01/03 08:46:23;;;;;;;29.02;17.63;;;;;;;19.21;42.08;95248.00;5073487;28;20493;-70
2022/01/03 08:48:50;;;;;;;18.30;12.80;;;;;;;17.80;45.08;95234.44;5073295;28;20203;-70
2022/01/03 08:51:19;;;;;;;20.15;13.48;;;;;;;16.11;49.49;95233.56;5072491;28;20198;-70
2022/01/03 08:53:46;;;;;;;56.90;31.52;;;;;;;15.83;51.46;95245.25;5072361;28;20227;-70
2022/01/03 08:56:13;;;;;;;60.85;30.52;;;;;;;15.88;51.23;95234.75;5073019;28;20201;-70
2022/01/03 08:58:40;;;;;;;22.45;15.48;;;;;;;16.14;50.84;95228.28;5073245;28;20669;-71
2022/01/03 09:01:08;;;;;;;22.05;15.10;;;;;;;15.26;51.84;95219.06;5063601;28;20199;-71
2022/01/03 09:03:36;;;;;;;19.92;13.70;;;;;;;15.23;52.67;95220.94;5051142;28;20246;-70
2022/01/03 09:06:04;;;;;;;18.88;11.88;;;;;;;16.30;52.03;95222.28;5051751;28;20195;-70
2022/01/03 09:08:33;;;;;;;19.17;11.80;;;;;;;16.76;48.69;95217.22;5052918;28;20206;-70
2022/01/03 09:10:59;;;;;;;18.58;13.15;;;;;;;16.85;48.26;95213.31;5052674;28;20198;-70
2022/01/03 09:13:26;;;;;;;15.45;12.35;;;;;;;17.17;47.89;95221.78;5050873;28;20223;-70
2022/01/03 09:15:53;;;;;;;24.10;13.65;;;;;;;17.02;47.30;95222.66;5050887;28;20195;-70
2022/01/03 09:18:24;;;;;;;21.88;15.50;;;;;;;15.32;52.06;95211.09;5050172;28;20255;-71
2022/01/03 09:20:51;;;;;;;22.88;15.63;;;;;;;15.10;52.79;95212.19;5050034;28;20202;-71
2022/01/03 09:23:22;;;;;;;24.05;17.95;;;;;;;15.12;53.85;95205.25;5050132;28;20195;-71
2022/01/03 09:28:52;;;;;;;37.90;23.88;;;;;;;15.97;50.19;95186.41;5050353;28;20322;-71
2022/01/03 09:31:24;;;;;;;48.03;28.30;;;;;;;13.82;55.88;95182.38;5051161;28;20195;-71
2022/01/03 09:33:51;;;;;;;50.03;29.70;;;;;;;13.88;56.83;95175.25;5052672;28;20891;-71
2022/01/03 09:36:18;;;;;;;46.20;27.88;;;;;;;14.02;57.00;95189.97;5052748;28;20195;-71
2022/01/03 09:38:45;;;;;;;47.08;27.85;;;;;;;13.68;57.83;95182.13;5052292;28;20190;-71
2022/01/03 09:41:14;;;;;;;35.47;22.67;;;;;;;13.54;56.75;95173.34;5051919;28;20235;-71
2022/01/03 09:43:49;;;;;;;30.42;20.70;;;;;;;13.43;58.12;95162.75;5052208;28;20697;-71
2022/01/03 09:46:21;;;;;;;33.15;21.15;;;;;;;12.83;59.46;95161.03;5052701;28;20264;-72
2022/01/03 09:48:55;;;;;;;35.10;20.42;;;;;;;12.85;61.20;95162.63;5052470;28;20252;-71
2022/01/03 09:51:23;;;;;;;31.70;18.80;;;;;;;13.04;60.95;95162.69;5052048;28;20264;-71
2022/01/03 09:53:52;;;;;;;31.63;20.83;;;;;;;13.12;61.09;95154.72;5052065;28;20227;-70
2022/01/03 09:56:21;;;;;;;29.55;18.42;;;;;;;13.04;60.01;95159.31;5052011;28;20199;-70
2022/01/03 09:58:48;;;;;;;27.70;16.25;;;;;;;12.42;60.76;95153.31;5052042;28;20194;-71
2022/01/03 10:01:15;;;;;;;29.95;19.45;;;;;;;12.38;62.04;95158.56;5052199;28;20246;-70
2022/01/03 10:03:47;;;;;;;33.90;21.55;;;;;;;12.44;62.78;95146.44;5051855;28;20674;-71
2022/01/03 10:06:15;;;;;;;30.17;19.70;;;;;;;12.35;62.88;95140.88;5051862;28;20282;-71
2022/01/03 10:08:42;;;;;;;20.10;15.93;;;;;;;11.92;65.02;95137.41;5051841;28;20201;-71
2022/01/03 10:11:09;;;;;;;23.10;15.93;;;;;;;12.21;63.35;95129.50;5051665;28;20240;-72
2022/01/03 10:13:38;;;;;;;23.95;16.52;;;;;;;12.28;63.22;95119.91;5052016;28;20226;-72
2022/01/03 10:16:06;;;;;;;30.25;17.92;;;;;;;12.28;62.78;95119.91;5051752;28;20195;-71
2022/01/03 10:18:34;;;;;;;25.30;15.88;;;;;;;12.24;63.92;95113.25;5051472;28;20253;-71
2022/01/03 10:21:01;;;;;;;24.35;15.82;;;;;;;12.31;62.83;95113.84;5051664;28;20342;-71
2022/01/03 10:23:29;;;;;;;22.30;15.50;;;;;;;12.40;62.87;95118.56;5051347;28;20252;-72
2022/01/03 10:26:14;;;;;;;18.67;13.68;;;;;;;12.32;63.53;95113.81;5051051;28;20207;-71
2022/01/03 10:28:42;;;;;;;22.52;13.85;;;;;;;12.65;63.75;95113.31;5051419;28;20548;-72
2022/01/03 10:31:16;;;;;;;18.67;13.80;;;;;;;12.83;62.91;95095.56;5051152;28;20669;-72
2022/01/03 10:33:43;;;;;;;27.55;15.60;;;;;;;12.79;62.20;95094.03;5051469;28;20803;-72
2022/01/03 10:36:26;;;;;;;21.30;15.88;;;;;;;12.86;62.49;95082.69;5051383;28;20671;-72
2022/01/03 10:38:53;;;;;;;22.35;15.13;;;;;;;12.56;62.29;95079.69;5051661;28;20252;-71
2022/01/03 10:41:24;;;;;;;24.52;14.70;;;;;;;12.30;64.21;95084.16;5051456;28;20230;-71
2022/01/03 10:43:55;;;;;;;22.30;14.10;;;;;;;12.52;63.20;95073.03;5049969;28;20199;-71
2022/01/03 10:46:24;;;;;;;23.75;14.85;;;;;;;12.57;63.31;95060.94;5049617;28;20230;-71
2022/01/03 10:48:52;;;;;;;29.17;16.40;;;;;;;12.56;62.73;95061.00;5049300;28;20248;-71
2022/01/03 10:51:24;;;;;;;29.90;15.18;;;;;;;12.72;62.80;95056.09;5049158;28;20252;-72
2022/01/03 10:53:53;;;;;;;25.85;16.50;;;;;;;12.87;62.46;95050.31;5048877;28;20265;-73
2022/01/03 10:56:28;;;;;;;24.15;16.13;;;;;;;12.48;62.90;95040.09;5049754;28;20191;-74
2022/01/03 10:58:57;;;;;;;25.02;15.50;;;;;;;12.64;63.15;95046.19;5050156;28;20631;-73
2022/01/03 11:01:25;;;;;;;23.50;13.80;;;;;;;12.76;63.00;95038.06;5051174;28;20277;-73
2022/01/03 11:03:54;;;;;;;22.80;15.07;;;;;;;12.87;63.88;95035.03;5050805;28;20272;-71
2022/01/03 11:06:35;;;;;;;27.98;14.93;;;;;;;12.90;62.62;95027.25;5050951;28;20195;-71
2022/01/03 11:11:49;;;;;;;25.50;14.73;;;;;;;12.44;63.94;95033.47;5051075;28;20202;-71
2022/01/03 11:14:34;;;;;;;20.85;14.40;;;;;;;12.41;64.69;95029.31;5051945;28;20735;-72
2022/01/03 11:17:02;;;;;;;20.80;14.48;;;;;;;12.51;65.02;95012.75;5061863;28;20202;-73
2022/01/03 11:19:38;;;;;;;23.50;14.40;;;;;;;12.52;65.11;95011.03;5060603;28;20698;-73
2022/01/03 11:22:05;;;;;;;39.72;22.75;;;;;;;12.42;65.01;95009.75;5060436;28;20214;-73
2022/01/03 11:24:33;;;;;;;25.25;14.55;;;;;;;12.48;64.27;95001.84;5059267;28;20210;-73
2022/01/03 11:27:00;;;;;;;21.13;14.23;;;;;;;12.40;64.66;94996.25;5059184;28;20285;-73
2022/01/03 11:29:28;;;;;;;49.92;25.73;;;;;;;12.51;64.62;94983.88;5060472;28;20202;-74
2022/01/03 11:32:00;;;;;;;52.75;28.58;;;;;;;12.43;65.11;94978.28;5059061;28;20622;-73
2022/01/03 11:34:28;;;;;;;24.60;15.65;;;;;;;12.59;64.66;94981.84;5059717;28;20320;-74
2022/01/03 11:36:55;;;;;;;25.38;15.48;;;;;;;12.71;64.30;94978.75;5060322;28;20194;-74
2022/01/03 11:39:23;;;;;;;32.35;15.43;;;;;;;12.82;64.65;94976.59;5061097;28;20198;-73
2022/01/03 11:41:53;;;;;;;20.17;11.77;;;;;;;13.13;67.05;94977.75;5061086;28;20229;-75